createdAt,value
2018-12-03T00:00:19.980Z,29.90
2018-12-03T00:01:19.931Z,27.60
2018-12-03T00:02:19.878Z,31.00
2018-12-03T00:03:19.850Z,28.90
2018-12-03T00:04:19.779Z,29.20
2018-12-03T00:05:19.727Z,25.30
2018-12-03T00:06:19.677Z,28.50
2018-12-03T00:07:19.633Z,27.70
2018-12-03T00:08:19.598Z,27.40
2018-12-03T00:09:19.523Z,29.80
2018-12-03T00:10:19.473Z,29.30
2018-12-03T00:11:19.421Z,29.40
2018-12-03T00:12:19.370Z,30.30
2018-12-03T00:13:19.346Z,29.10
2018-12-03T00:14:19.267Z,34.10
2018-12-03T00:15:19.220Z,32.10
2018-12-03T00:16:19.167Z,26.40
2018-12-03T00:17:19.118Z,28.10
2018-12-03T00:18:19.089Z,26.70
2018-12-03T00:19:19.015Z,26.10
2018-12-03T00:20:18.968Z,27.80
2018-12-03T00:21:18.918Z,25.40
2018-12-03T00:22:18.861Z,25.80
2018-12-03T00:23:18.835Z,23.60
2018-12-03T00:24:18.760Z,26.00
2018-12-03T00:25:18.710Z,29.80
2018-12-03T00:26:18.663Z,29.30
2018-12-03T00:27:18.607Z,25.40
2018-12-03T00:28:18.589Z,29.80
2018-12-03T00:29:18.505Z,26.60
2018-12-03T00:30:18.457Z,28.10
2018-12-03T00:31:18.402Z,31.00
2018-12-03T00:32:18.358Z,28.60
2018-12-03T00:33:18.326Z,29.20
2018-12-03T00:34:18.250Z,28.90
2018-12-03T00:35:18.200Z,27.10
2018-12-03T00:36:18.150Z,26.10
2018-12-03T00:37:18.101Z,28.70
2018-12-03T00:38:18.087Z,30.00
2018-12-03T00:39:17.997Z,28.10
2018-12-03T00:40:17.942Z,25.40
2018-12-03T00:41:17.894Z,29.60
2018-12-03T00:42:17.844Z,30.90
2018-12-03T00:43:17.793Z,30.50
2018-12-03T00:44:17.770Z,26.30
2018-12-03T00:45:17.693Z,27.50
2018-12-03T00:46:17.643Z,29.20
2018-12-03T00:47:17.591Z,30.30
2018-12-03T00:48:17.542Z,26.20
2018-12-03T00:49:17.515Z,30.70
2018-12-03T00:50:17.441Z,26.30
2018-12-03T00:51:17.387Z,28.60
2018-12-03T00:52:17.333Z,31.10
2018-12-03T00:53:17.284Z,28.70
2018-12-03T00:54:17.256Z,27.50
2018-12-03T00:55:17.187Z,32.30
2018-12-03T00:56:17.133Z,30.70
2018-12-03T00:57:17.083Z,31.10
2018-12-03T00:58:17.030Z,31.20
2018-12-03T00:59:17.004Z,31.50
2018-12-03T01:00:16.930Z,37.30
2018-12-03T01:01:16.877Z,36.70
2018-12-03T01:02:16.825Z,34.50
2018-12-03T01:03:16.776Z,32.40
2018-12-03T01:04:16.746Z,30.30
2018-12-03T01:05:16.673Z,34.10
2018-12-03T01:06:16.623Z,33.10
2018-12-03T01:07:16.570Z,30.00
2018-12-03T01:08:16.521Z,32.00
2018-12-03T01:09:16.507Z,32.10
2018-12-03T01:10:16.421Z,37.00
2018-12-03T01:11:16.370Z,32.10
2018-12-03T01:12:16.317Z,33.50
2018-12-03T01:13:16.268Z,32.70
2018-12-03T01:14:16.241Z,32.10
2018-12-03T01:15:16.167Z,33.50
2018-12-03T01:16:16.114Z,37.00
2018-12-03T01:17:16.064Z,40.40
2018-12-03T01:18:16.013Z,35.90
2018-12-03T01:19:15.987Z,34.10
2018-12-03T01:20:15.912Z,35.50
2018-12-03T01:21:15.866Z,35.40
2018-12-03T01:22:15.811Z,31.90
2018-12-03T01:23:15.760Z,32.40
2018-12-03T01:24:15.730Z,37.70
2018-12-03T01:25:15.660Z,32.50
2018-12-03T01:26:15.608Z,34.00
2018-12-03T01:27:15.558Z,34.50
2018-12-03T01:28:15.507Z,35.70
2018-12-03T01:29:15.481Z,35.20
2018-12-03T01:30:15.408Z,30.90
2018-12-03T01:31:15.353Z,32.10
2018-12-03T01:32:15.302Z,35.60
2018-12-03T01:33:15.251Z,36.70
2018-12-03T01:34:15.225Z,34.20
2018-12-03T01:35:15.167Z,32.50
2018-12-03T01:36:15.106Z,33.30
2018-12-03T01:37:15.052Z,37.10
2018-12-03T01:38:15.000Z,38.80
2018-12-03T01:39:14.975Z,33.60
2018-12-03T01:40:14.893Z,31.30
2018-12-03T01:41:14.845Z,35.70
2018-12-03T01:42:14.795Z,34.00
2018-12-03T01:43:14.744Z,34.70
2018-12-03T01:44:14.717Z,36.40
2018-12-03T01:45:14.643Z,34.30
2018-12-03T01:46:14.591Z,39.00
2018-12-03T01:47:14.548Z,37.00
2018-12-03T01:48:14.489Z,37.00
2018-12-03T01:49:14.477Z,33.60
2018-12-03T01:50:14.388Z,33.90
2018-12-03T01:51:14.336Z,38.10
2018-12-03T01:52:14.286Z,31.20
2018-12-03T01:53:14.240Z,37.10
2018-12-03T01:54:14.189Z,36.50
2018-12-03T01:55:14.158Z,39.60
2018-12-03T01:56:14.086Z,33.30
2018-12-03T01:57:14.034Z,33.20
2018-12-03T01:58:13.982Z,36.60
2018-12-03T01:59:13.933Z,35.60
2018-12-03T02:00:13.903Z,35.50
2018-12-03T02:01:13.834Z,36.10
2018-12-03T02:02:13.794Z,37.30
2018-12-03T02:03:13.728Z,31.90
2018-12-03T02:04:13.676Z,33.80
2018-12-03T02:05:13.653Z,38.00
2018-12-03T02:06:13.578Z,36.30
2018-12-03T02:07:13.524Z,33.80
2018-12-03T02:08:13.474Z,36.00
2018-12-03T02:09:13.423Z,32.30
2018-12-03T02:10:13.396Z,34.90
2018-12-03T02:11:13.320Z,33.70
2018-12-03T02:12:13.272Z,35.80
2018-12-03T02:13:13.219Z,33.50
2018-12-03T02:14:13.170Z,34.70
2018-12-03T02:15:13.139Z,37.20
2018-12-03T02:16:13.069Z,34.40
2018-12-03T02:17:13.016Z,38.20
2018-12-03T02:18:12.965Z,33.90
2018-12-03T02:19:12.914Z,34.10
2018-12-03T02:20:12.886Z,35.50
2018-12-03T02:21:12.810Z,36.90
2018-12-03T02:22:12.762Z,31.70
2018-12-03T02:23:12.717Z,31.80
2018-12-03T02:24:12.662Z,34.40
2018-12-03T02:25:12.632Z,33.00
2018-12-03T02:26:12.566Z,34.20
2018-12-03T02:27:12.517Z,37.50
2018-12-03T02:28:12.469Z,40.90
2018-12-03T02:29:12.418Z,37.60
2018-12-03T02:30:12.378Z,36.40
2018-12-03T02:31:12.305Z,28.80
2018-12-03T02:32:12.255Z,29.00
2018-12-03T02:33:12.202Z,29.80
2018-12-03T02:34:12.156Z,29.40
2018-12-03T02:35:12.125Z,29.30
2018-12-03T02:36:12.048Z,26.20
2018-12-03T02:37:11.999Z,28.00
2018-12-03T02:38:11.953Z,29.00
2018-12-03T02:39:11.896Z,29.20
2018-12-03T02:40:11.865Z,26.20
2018-12-03T02:41:11.796Z,22.40
2018-12-03T02:42:11.746Z,21.60
2018-12-03T02:43:11.693Z,22.80
2018-12-03T02:44:11.641Z,22.90
2018-12-03T02:45:11.616Z,19.70
2018-12-03T02:46:11.550Z,18.10
2018-12-03T02:47:11.493Z,15.40
2018-12-03T02:48:11.450Z,18.70
2018-12-03T02:49:11.387Z,20.30
2018-12-03T02:50:11.414Z,17.40
2018-12-03T02:51:11.291Z,14.70
2018-12-03T02:52:11.238Z,16.40
2018-12-03T02:53:11.188Z,17.30
2018-12-03T02:54:11.140Z,16.30
2018-12-03T02:55:11.110Z,15.60
2018-12-03T02:56:11.034Z,17.90
2018-12-03T02:57:10.984Z,13.20
2018-12-03T02:58:10.936Z,16.30
2018-12-03T02:59:10.879Z,15.80
2018-12-03T03:00:10.870Z,16.70
2018-12-03T03:01:10.776Z,15.40
2018-12-03T03:02:10.800Z,14.80
2018-12-03T03:03:10.677Z,17.00
2018-12-03T03:04:10.625Z,15.10
2018-12-03T03:05:10.572Z,18.00
2018-12-03T03:06:10.547Z,14.50
2018-12-03T03:07:10.472Z,14.20
2018-12-03T03:08:10.422Z,14.80
2018-12-03T03:09:10.377Z,17.10
2018-12-03T03:10:10.319Z,18.30
2018-12-03T03:11:10.291Z,13.80
2018-12-03T03:12:10.218Z,12.70
2018-12-03T03:13:10.170Z,16.20
2018-12-03T03:14:10.113Z,14.40
2018-12-03T03:15:10.065Z,15.30
2018-12-03T03:16:10.034Z,14.00
2018-12-03T03:17:09.961Z,15.60
2018-12-03T03:18:09.913Z,16.00
2018-12-03T03:19:09.862Z,12.60
2018-12-03T03:20:09.816Z,12.20
2018-12-03T03:21:09.782Z,11.80
2018-12-03T03:22:09.720Z,14.10
2018-12-03T03:23:09.659Z,13.00
2018-12-03T03:24:09.608Z,13.70
2018-12-03T03:25:09.558Z,13.00
2018-12-03T03:26:09.531Z,11.90
2018-12-03T03:27:09.452Z,12.20
2018-12-03T03:28:09.404Z,15.20
2018-12-03T03:29:09.351Z,16.10
2018-12-03T03:30:09.307Z,13.60
2018-12-03T03:31:09.277Z,16.10
2018-12-03T03:32:09.199Z,16.40
2018-12-03T03:33:09.181Z,12.70
2018-12-03T03:34:09.098Z,15.90
2018-12-03T03:35:09.049Z,16.90
2018-12-03T03:36:09.020Z,16.00
2018-12-03T03:37:08.944Z,17.10
2018-12-03T03:38:08.892Z,20.30
2018-12-03T03:39:08.848Z,19.70
2018-12-03T03:40:08.794Z,20.30
2018-12-03T03:41:08.765Z,17.80
2018-12-03T03:42:08.690Z,21.70
2018-12-03T03:43:08.638Z,20.60
2018-12-03T03:44:08.591Z,21.10
2018-12-03T03:45:08.538Z,20.30
2018-12-03T03:46:08.517Z,22.80
2018-12-03T03:47:08.436Z,21.00
2018-12-03T03:48:08.386Z,23.80
2018-12-03T03:49:08.342Z,24.30
2018-12-03T03:50:08.284Z,23.90
2018-12-03T03:51:08.263Z,23.60
2018-12-03T03:52:08.184Z,25.00
2018-12-03T03:53:08.130Z,24.20
2018-12-03T03:54:08.083Z,26.10
2018-12-03T03:55:08.031Z,28.50
2018-12-03T03:56:08.006Z,25.50
2018-12-03T03:57:07.928Z,26.90
2018-12-03T03:58:07.876Z,28.20
2018-12-03T03:59:07.826Z,31.20
2018-12-03T04:00:07.774Z,26.00
2018-12-03T04:01:07.748Z,28.50
2018-12-03T04:02:07.678Z,32.50
2018-12-03T04:03:07.625Z,33.90
2018-12-03T04:04:07.612Z,31.80
2018-12-03T04:05:07.519Z,32.50
2018-12-03T04:06:07.496Z,33.90
2018-12-03T04:07:07.421Z,31.30
2018-12-03T04:08:07.366Z,38.20
2018-12-03T04:09:07.316Z,35.20
2018-12-03T04:10:07.268Z,36.60
2018-12-03T04:11:07.239Z,36.30
2018-12-03T04:12:07.166Z,39.70
2018-12-03T04:13:07.114Z,42.10
2018-12-03T04:14:07.072Z,32.40
2018-12-03T04:15:07.012Z,34.70
2018-12-03T04:16:07.003Z,37.60
2018-12-03T04:17:06.908Z,31.10
2018-12-03T04:18:06.860Z,37.40
2018-12-03T04:19:06.813Z,35.20
2018-12-03T04:20:06.756Z,36.60
2018-12-03T04:21:06.706Z,32.70
2018-12-03T04:22:06.680Z,31.60
2018-12-03T04:23:06.611Z,32.60
2018-12-03T04:24:06.552Z,29.20
2018-12-03T04:25:06.501Z,34.70
2018-12-03T04:26:06.451Z,34.90
2018-12-03T04:27:06.428Z,37.30
2018-12-03T04:28:06.350Z,36.40
2018-12-03T04:29:06.302Z,35.60
2018-12-03T04:30:06.254Z,34.90
2018-12-03T04:31:06.196Z,40.40
2018-12-03T04:32:06.169Z,42.50
2018-12-03T04:33:06.095Z,37.40
2018-12-03T04:34:06.048Z,40.30
2018-12-03T04:35:05.993Z,39.00
2018-12-03T04:36:05.942Z,37.60
2018-12-03T04:37:05.915Z,34.00
2018-12-03T04:38:05.851Z,36.60
2018-12-03T04:39:05.791Z,34.60
2018-12-03T04:40:05.740Z,31.40
2018-12-03T04:41:05.686Z,33.10
2018-12-03T04:42:05.662Z,38.70
2018-12-03T04:43:05.617Z,35.00
2018-12-03T04:44:05.542Z,29.90
2018-12-03T04:45:05.483Z,31.90
2018-12-03T04:46:05.437Z,35.50
2018-12-03T04:47:05.412Z,35.50
2018-12-03T04:48:05.334Z,31.00
2018-12-03T04:49:05.283Z,31.30
2018-12-03T04:50:05.229Z,29.30
2018-12-03T04:51:05.179Z,31.70
2018-12-03T04:52:05.151Z,31.40
2018-12-03T04:53:05.084Z,27.80
2018-12-03T04:54:05.026Z,29.70
2018-12-03T04:55:04.975Z,24.30
2018-12-03T04:56:04.929Z,30.40
2018-12-03T04:57:04.897Z,30.10
2018-12-03T04:58:04.820Z,25.30
2018-12-03T04:59:04.771Z,27.00
2018-12-03T05:00:04.722Z,29.30
2018-12-03T05:01:04.669Z,28.70
2018-12-03T05:02:04.643Z,28.90
2018-12-03T05:03:04.565Z,29.30
2018-12-03T05:04:04.516Z,24.80
2018-12-03T05:05:04.466Z,25.50
2018-12-03T05:06:04.413Z,25.00
2018-12-03T05:07:04.385Z,26.40
2018-12-03T05:08:04.318Z,27.70
2018-12-03T05:09:04.260Z,26.30
2018-12-03T05:10:04.211Z,26.50
2018-12-03T05:11:04.161Z,27.60
2018-12-03T05:12:04.130Z,22.50
2018-12-03T05:13:04.064Z,18.20
2018-12-03T05:14:04.011Z,18.30
2018-12-03T05:15:03.955Z,20.20
2018-12-03T05:16:03.921Z,18.90
2018-12-03T05:17:11.080Z,19.30
2018-12-03T05:18:03.800Z,17.00
2018-12-03T05:19:03.751Z,18.70
2018-12-03T05:20:03.699Z,19.60
2018-12-03T05:21:03.652Z,13.60
2018-12-03T05:22:03.597Z,15.10
2018-12-03T05:23:03.574Z,18.60
2018-12-03T05:24:04.405Z,16.00
2018-12-03T05:25:03.450Z,15.90
2018-12-03T05:26:03.392Z,17.00
2018-12-03T05:27:03.339Z,18.10
2018-12-03T05:28:03.313Z,15.80
2018-12-03T05:29:03.237Z,15.70
2018-12-03T05:30:03.187Z,14.80
2018-12-03T05:31:03.141Z,15.70
2018-12-03T05:32:03.085Z,13.60
2018-12-03T05:33:03.062Z,13.80
2018-12-03T05:34:02.985Z,13.60
2018-12-03T05:35:02.930Z,12.10
2018-12-03T05:36:02.880Z,12.70
2018-12-03T05:37:02.837Z,13.70
2018-12-03T05:38:02.807Z,12.30
2018-12-03T05:39:02.728Z,13.70
2018-12-03T05:40:02.675Z,15.50
2018-12-03T05:41:02.627Z,13.30
2018-12-03T05:42:02.578Z,12.10
2018-12-03T05:43:02.546Z,13.80
2018-12-03T05:44:02.481Z,15.30
2018-12-03T05:45:02.422Z,16.00
2018-12-03T05:46:02.384Z,13.50
2018-12-03T05:47:02.371Z,15.20
2018-12-03T05:48:02.301Z,12.70
2018-12-03T05:49:02.221Z,13.50
2018-12-03T05:50:02.166Z,13.60
2018-12-03T05:51:02.115Z,15.00
2018-12-03T05:52:02.065Z,13.10
2018-12-03T05:53:02.033Z,13.20
2018-12-03T05:54:01.959Z,11.70
2018-12-03T05:55:01.913Z,14.20
2018-12-03T05:56:01.859Z,14.00
2018-12-03T05:57:01.810Z,14.50
2018-12-03T05:58:01.782Z,11.50
2018-12-03T05:59:01.706Z,11.10
2018-12-03T06:00:01.670Z,9.40
2018-12-03T06:01:01.606Z,12.80
2018-12-03T06:02:01.556Z,12.10
2018-12-03T06:03:01.525Z,10.60
2018-12-03T06:04:01.454Z,10.60
2018-12-03T06:05:01.396Z,11.60
2018-12-03T06:06:01.355Z,9.80
2018-12-03T06:07:01.296Z,8.70
2018-12-03T06:08:01.282Z,10.20
2018-12-03T06:09:01.196Z,12.20
2018-12-03T06:10:01.147Z,7.10
2018-12-03T06:11:01.099Z,8.60
2018-12-03T06:12:01.043Z,7.90
2018-12-03T06:13:01.027Z,9.60
2018-12-03T06:14:00.938Z,9.00
2018-12-03T06:15:00.888Z,7.80
2018-12-03T06:16:00.835Z,7.70
2018-12-03T06:17:00.787Z,7.60
2018-12-03T06:18:00.738Z,9.90
2018-12-03T06:19:00.705Z,7.90
2018-12-03T06:20:00.631Z,7.90
2018-12-03T06:21:24.137Z,6.00
2018-12-03T06:22:25.188Z,8.20
2018-12-03T06:23:24.053Z,10.10
2018-12-03T06:24:23.993Z,10.60
2018-12-03T06:25:23.933Z,8.20
2018-12-03T06:26:23.877Z,11.10
2018-12-03T06:27:31.756Z,10.70
2018-12-03T06:28:23.820Z,9.20
2018-12-03T06:29:23.722Z,9.30
2018-12-03T06:30:23.676Z,9.00
2018-12-03T06:31:23.626Z,8.70
2018-12-03T06:32:23.575Z,9.80
2018-12-03T06:33:23.519Z,12.20
2018-12-03T06:34:23.489Z,11.20
2018-12-03T06:35:23.413Z,13.70
2018-12-03T06:36:23.363Z,10.20
2018-12-03T06:37:23.315Z,12.80
2018-12-03T06:38:23.264Z,13.30
2018-12-03T06:39:23.241Z,12.90
2018-12-03T06:40:23.161Z,11.30
2018-12-03T06:41:23.106Z,11.70
2018-12-03T06:42:23.056Z,11.60
2018-12-03T06:43:23.008Z,11.50
2018-12-03T06:44:22.979Z,12.00
2018-12-03T06:45:22.903Z,12.30
2018-12-03T06:46:22.855Z,7.50
2018-12-03T06:47:22.800Z,11.10
2018-12-03T06:48:22.749Z,11.60
2018-12-03T06:49:22.722Z,13.20
2018-12-03T06:50:22.647Z,12.40
2018-12-03T06:51:22.597Z,11.10
2018-12-03T06:52:22.550Z,12.80
2018-12-03T06:53:22.492Z,12.80
2018-12-03T06:54:22.471Z,11.90
2018-12-03T06:55:22.392Z,13.90
2018-12-03T06:56:22.339Z,13.90
2018-12-03T06:57:22.288Z,14.10
2018-12-03T06:58:22.237Z,12.40
2018-12-03T06:59:22.227Z,13.10
2018-12-03T07:00:22.136Z,16.30
2018-12-03T07:01:22.086Z,13.30
2018-12-03T07:02:22.033Z,14.40
2018-12-03T07:03:21.981Z,13.30
2018-12-03T07:04:21.934Z,15.10
2018-12-03T07:05:21.910Z,16.00
2018-12-03T07:06:21.829Z,16.30
2018-12-03T07:07:21.776Z,13.80
2018-12-03T07:08:21.726Z,12.10
2018-12-03T07:09:21.674Z,11.30
2018-12-03T07:10:21.648Z,13.30
2018-12-03T07:11:21.572Z,11.30
2018-12-03T07:12:21.520Z,11.00
2018-12-03T07:13:21.468Z,9.90
2018-12-03T07:14:21.417Z,10.80
2018-12-03T07:15:21.390Z,11.80
2018-12-03T07:16:21.317Z,10.00
2018-12-03T07:17:21.262Z,12.60
2018-12-03T07:18:30.314Z,9.60
2018-12-03T07:19:21.164Z,10.70
2018-12-03T07:20:21.132Z,11.50
2018-12-03T07:21:21.057Z,12.00
2018-12-03T07:22:21.005Z,11.90
2018-12-03T07:23:20.955Z,11.90
2018-12-03T07:24:20.902Z,11.40
2018-12-03T07:25:20.874Z,10.60
2018-12-03T07:26:20.797Z,10.40
2018-12-03T07:27:20.750Z,11.00
2018-12-03T07:28:20.695Z,9.70
2018-12-03T07:29:20.645Z,12.90
2018-12-03T07:30:20.615Z,12.50
2018-12-03T07:31:20.542Z,12.80
2018-12-03T07:32:20.497Z,11.30
2018-12-03T07:33:20.438Z,10.40
2018-12-03T07:34:20.387Z,11.30
2018-12-03T07:35:20.361Z,10.60
2018-12-03T07:36:20.286Z,12.20
2018-12-03T07:37:20.230Z,10.30
2018-12-03T07:38:20.229Z,8.80
2018-12-03T07:39:20.132Z,12.70
2018-12-03T07:40:20.100Z,10.20
2018-12-03T07:41:20.022Z,11.30
2018-12-03T07:42:19.973Z,10.70
2018-12-03T07:43:19.918Z,9.80
2018-12-03T07:44:19.869Z,14.30
2018-12-03T07:45:19.843Z,8.80
2018-12-03T07:46:19.776Z,10.50
2018-12-03T07:47:19.719Z,12.20
2018-12-03T07:48:19.662Z,12.40
2018-12-03T07:49:19.613Z,10.50
2018-12-03T07:50:19.583Z,13.50
2018-12-03T07:51:19.508Z,13.80
2018-12-03T07:52:19.458Z,11.50
2018-12-03T07:53:19.405Z,10.70
2018-12-03T07:54:19.358Z,11.90
2018-12-03T07:55:19.324Z,10.70
2018-12-03T07:56:19.255Z,12.80
2018-12-03T07:57:19.199Z,12.30
2018-12-03T07:58:19.149Z,12.90
2018-12-03T07:59:19.096Z,14.00
2018-12-03T08:00:19.073Z,12.70
2018-12-03T08:01:19.002Z,11.50
2018-12-03T08:02:18.940Z,11.20
2018-12-03T08:03:18.893Z,11.60
2018-12-03T08:04:18.845Z,12.90
2018-12-03T08:05:18.813Z,13.60
2018-12-03T08:06:18.738Z,14.70
2018-12-03T08:07:18.688Z,16.10
2018-12-03T08:08:18.638Z,14.80
2018-12-03T08:09:18.585Z,14.50
2018-12-03T08:10:18.562Z,13.60
2018-12-03T08:11:18.482Z,11.60
2018-12-03T08:12:18.430Z,12.80
2018-12-03T08:13:18.382Z,11.50
2018-12-03T08:14:18.327Z,14.00
2018-12-03T08:15:18.276Z,16.10
2018-12-03T08:16:18.246Z,12.70
2018-12-03T08:17:18.173Z,13.20
2018-12-03T08:18:18.123Z,16.20
2018-12-03T08:19:18.072Z,11.20
2018-12-03T08:20:18.019Z,14.20
2018-12-03T08:21:17.992Z,17.60
2018-12-03T08:22:17.918Z,15.40
2018-12-03T08:23:17.916Z,14.20
2018-12-03T08:24:17.815Z,15.10
2018-12-03T08:25:17.764Z,14.10
2018-12-03T08:26:17.736Z,13.50
2018-12-03T08:27:17.659Z,11.60
2018-12-03T08:28:17.611Z,15.30
2018-12-03T08:29:17.556Z,13.50
2018-12-03T08:30:17.506Z,12.20
2018-12-03T08:31:17.478Z,12.20
2018-12-03T08:32:17.405Z,10.70
2018-12-03T08:33:17.353Z,12.20
2018-12-03T08:34:17.301Z,11.20
2018-12-03T08:35:17.252Z,11.80
2018-12-03T08:36:17.235Z,11.70
2018-12-03T08:37:17.144Z,8.50
2018-12-03T08:38:17.098Z,9.30
2018-12-03T08:39:17.042Z,11.00
2018-12-03T08:40:16.995Z,10.50
2018-12-03T08:41:16.964Z,11.40
2018-12-03T08:42:16.890Z,12.40
2018-12-03T08:43:16.840Z,11.10
2018-12-03T08:44:16.786Z,13.60
2018-12-03T08:45:16.733Z,11.40
2018-12-03T08:46:16.705Z,10.20
2018-12-03T08:47:16.633Z,14.20
2018-12-03T08:48:16.589Z,12.10
2018-12-03T08:49:16.707Z,11.60
2018-12-03T08:50:16.480Z,13.10
2018-12-03T08:51:16.450Z,12.50
2018-12-03T08:52:16.374Z,15.30
2018-12-03T08:53:16.321Z,14.90
2018-12-03T08:54:16.271Z,11.80
2018-12-03T08:55:16.221Z,14.40
2018-12-03T08:56:16.196Z,15.30
2018-12-03T08:57:16.118Z,17.00
2018-12-03T08:58:16.068Z,14.40
2018-12-03T08:59:16.015Z,14.70
2018-12-03T09:00:15.966Z,17.60
2018-12-03T09:01:15.938Z,16.70
2018-12-03T09:02:15.859Z,15.00
2018-12-03T09:03:15.810Z,15.20
2018-12-03T09:04:15.760Z,18.70
2018-12-03T09:05:15.709Z,17.90
2018-12-03T09:06:15.691Z,18.20
2018-12-03T09:07:15.603Z,18.10
2018-12-03T09:08:15.562Z,18.10
2018-12-03T09:09:15.501Z,17.70
2018-12-03T09:10:15.449Z,12.10
2018-12-03T09:11:15.399Z,15.90
2018-12-03T09:12:15.371Z,13.00
2018-12-03T09:13:15.295Z,15.20
2018-12-03T09:14:15.244Z,16.00
2018-12-03T09:15:15.194Z,15.50
2018-12-03T09:16:15.140Z,15.50
2018-12-03T09:17:15.113Z,14.20
2018-12-03T09:18:15.041Z,14.00
2018-12-03T09:19:14.988Z,17.90
2018-12-03T09:20:14.937Z,14.80
2018-12-03T09:21:14.883Z,16.20
2018-12-03T09:22:14.857Z,16.60
2018-12-03T09:23:15.336Z,16.30
2018-12-03T09:24:15.328Z,15.30
2018-12-03T09:25:14.680Z,17.80
2018-12-03T09:26:14.629Z,20.40
2018-12-03T09:27:14.605Z,18.70
2018-12-03T09:28:14.529Z,19.60
2018-12-03T09:29:14.478Z,15.80
2018-12-03T09:30:14.435Z,16.60
2018-12-03T09:31:14.371Z,18.90
2018-12-03T09:32:14.352Z,16.40
2018-12-03T09:33:14.274Z,17.60
2018-12-03T09:34:14.220Z,14.80
2018-12-03T09:35:14.171Z,17.40
2018-12-03T09:36:14.122Z,18.70
2018-12-03T09:37:14.088Z,22.00
2018-12-03T09:38:14.015Z,19.60
2018-12-03T09:39:13.966Z,14.90
2018-12-03T09:40:13.917Z,18.20
2018-12-03T09:41:13.864Z,17.60
2018-12-03T09:42:13.833Z,21.40
2018-12-03T09:43:13.761Z,13.50
2018-12-03T09:44:13.709Z,16.90
2018-12-03T09:45:13.658Z,21.20
2018-12-03T09:46:13.613Z,16.50
2018-12-03T09:47:13.577Z,18.40
2018-12-03T09:48:13.502Z,17.30
2018-12-03T09:49:13.450Z,18.60
2018-12-03T09:50:13.403Z,16.00
2018-12-03T09:51:13.352Z,16.60
2018-12-03T09:52:13.341Z,15.50
2018-12-03T09:53:13.249Z,21.00
2018-12-03T09:54:13.196Z,19.00
2018-12-03T09:55:13.150Z,14.00
2018-12-03T09:56:13.094Z,16.00
2018-12-03T09:57:13.069Z,17.40
2018-12-03T09:58:12.993Z,14.90
2018-12-03T09:59:12.943Z,13.90
2018-12-03T10:00:12.894Z,14.10
2018-12-03T10:01:12.846Z,14.40
2018-12-03T10:02:12.828Z,18.00
2018-12-03T10:03:12.738Z,16.10
2018-12-03T10:04:12.689Z,15.30
2018-12-03T10:05:12.638Z,12.60
2018-12-03T10:06:12.587Z,19.50
2018-12-03T10:07:12.542Z,17.10
2018-12-03T10:08:12.517Z,14.20
2018-12-03T10:09:12.435Z,15.80
2018-12-03T10:10:12.385Z,12.40
2018-12-03T10:11:12.333Z,14.10
2018-12-03T10:12:18.060Z,12.70
2018-12-03T10:13:12.252Z,17.60
2018-12-03T10:14:15.005Z,12.40
2018-12-03T10:15:12.129Z,14.60
2018-12-03T10:16:12.079Z,16.10
2018-12-03T10:17:12.028Z,13.30
2018-12-03T10:18:12.000Z,12.10
2018-12-03T10:19:11.922Z,11.80
2018-12-03T10:20:11.873Z,11.80
2018-12-03T10:21:11.822Z,14.60
2018-12-03T10:22:11.771Z,13.80
2018-12-03T10:23:11.744Z,13.40
2018-12-03T10:24:11.680Z,12.60
2018-12-03T10:25:11.619Z,18.70
2018-12-03T10:26:11.593Z,13.70
2018-12-03T10:27:11.533Z,14.80
2018-12-03T10:28:11.493Z,12.90
2018-12-03T10:29:11.417Z,11.10
2018-12-03T10:30:11.365Z,12.10
2018-12-03T10:31:11.312Z,15.10
2018-12-03T10:32:11.265Z,13.90
2018-12-03T10:33:11.238Z,13.30
2018-12-03T10:34:11.166Z,14.40
2018-12-03T10:35:11.116Z,13.80
2018-12-03T10:36:11.067Z,14.40
2018-12-03T10:37:11.009Z,16.60
2018-12-03T10:38:10.985Z,9.50
2018-12-03T10:39:10.907Z,15.10
2018-12-03T10:40:10.857Z,17.80
2018-12-03T10:41:10.808Z,14.90
2018-12-03T10:42:10.755Z,13.90
2018-12-03T10:43:10.727Z,14.10
2018-12-03T10:44:10.654Z,11.30
2018-12-03T10:45:10.607Z,12.90
2018-12-03T10:46:10.552Z,12.80
2018-12-03T10:47:10.502Z,15.60
2018-12-03T10:48:10.480Z,12.40
2018-12-03T10:49:10.400Z,14.40
2018-12-03T10:50:10.350Z,14.90
2018-12-03T10:51:10.297Z,11.10
2018-12-03T10:52:10.251Z,12.30
2018-12-03T10:53:10.223Z,13.00
2018-12-03T10:54:10.153Z,14.90
2018-12-03T10:55:10.098Z,13.90
2018-12-03T10:56:10.049Z,14.00
2018-12-03T10:57:09.994Z,13.50
2018-12-03T10:58:09.965Z,11.30
2018-12-03T10:59:09.896Z,11.90
2018-12-03T11:00:09.842Z,13.30
2018-12-03T11:01:09.790Z,13.60
2018-12-03T11:02:09.741Z,15.10
2018-12-03T11:03:09.711Z,14.20
2018-12-03T11:04:09.641Z,13.10
2018-12-03T11:05:09.588Z,14.10
2018-12-03T11:06:09.538Z,12.50
2018-12-03T11:07:09.491Z,14.10
2018-12-03T11:08:09.437Z,14.90
2018-12-03T11:09:09.412Z,11.00
2018-12-03T11:10:09.333Z,12.50
2018-12-03T11:11:09.283Z,10.80
2018-12-03T11:12:09.232Z,9.90
2018-12-03T11:13:09.192Z,14.10
2018-12-03T11:14:09.164Z,13.70
2018-12-03T11:15:09.089Z,12.10
2018-12-03T11:16:09.031Z,10.90
2018-12-03T11:17:08.975Z,13.60
2018-12-03T11:18:08.927Z,16.20
2018-12-03T11:19:08.900Z,12.00
2018-12-03T11:20:08.831Z,13.20
2018-12-03T11:21:08.772Z,11.90
2018-12-03T11:22:08.728Z,14.40
2018-12-03T11:23:08.673Z,11.00
2018-12-03T11:24:08.646Z,13.40
2018-12-03T11:25:08.569Z,10.80
2018-12-03T11:26:08.518Z,13.50
2018-12-03T11:27:08.467Z,12.00
2018-12-03T11:28:08.418Z,13.30
2018-12-03T11:29:08.391Z,13.80
2018-12-03T11:30:08.315Z,13.30
2018-12-03T11:31:08.266Z,15.00
2018-12-03T11:32:08.216Z,13.50
2018-12-03T11:33:08.164Z,13.40
2018-12-03T11:34:08.138Z,13.50
2018-12-03T11:35:08.066Z,14.70
2018-12-03T11:36:08.019Z,9.70
2018-12-03T11:37:07.958Z,15.40
2018-12-03T11:38:07.908Z,13.70
2018-12-03T11:39:07.884Z,15.70
2018-12-03T11:40:07.810Z,13.60
2018-12-03T11:41:07.758Z,17.70
2018-12-03T11:42:07.704Z,11.70
2018-12-03T11:43:07.653Z,14.00
2018-12-03T11:44:07.628Z,13.50
2018-12-03T11:45:07.553Z,14.00
2018-12-03T11:46:07.503Z,11.00
2018-12-03T11:47:07.463Z,11.40
2018-12-03T11:48:07.402Z,11.20
2018-12-03T11:49:07.371Z,11.10
2018-12-03T11:50:07.312Z,14.20
2018-12-03T11:51:07.245Z,16.10
2018-12-03T11:52:07.192Z,12.50
2018-12-03T11:53:07.141Z,11.10
2018-12-03T11:54:07.113Z,14.00
2018-12-03T11:55:07.038Z,12.10
2018-12-03T11:56:07.802Z,13.10
2018-12-03T11:57:06.936Z,14.40
2018-12-03T11:58:06.891Z,13.90
2018-12-03T11:59:06.857Z,15.40
2018-12-03T12:00:06.784Z,9.10
2018-12-03T12:01:06.733Z,13.40
2018-12-03T12:02:06.679Z,13.70
2018-12-03T12:03:06.639Z,13.10
2018-12-03T12:04:06.603Z,13.90
2018-12-03T12:05:06.530Z,10.00
2018-12-03T12:06:06.479Z,15.80
2018-12-03T12:07:06.424Z,12.80
2018-12-03T12:08:06.374Z,14.30
2018-12-03T12:09:06.346Z,16.00
2018-12-03T12:10:06.270Z,16.50
2018-12-03T12:11:06.221Z,13.00
2018-12-03T12:12:06.171Z,14.40
2018-12-03T12:13:06.120Z,15.60
2018-12-03T12:14:06.106Z,11.10
2018-12-03T12:15:06.014Z,12.20
2018-12-03T12:16:05.966Z,13.20
2018-12-03T12:17:05.914Z,15.20
2018-12-03T12:18:05.861Z,12.90
2018-12-03T12:19:05.813Z,11.00
2018-12-03T12:20:05.786Z,13.40
2018-12-03T12:21:05.716Z,13.50
2018-12-03T12:22:05.660Z,9.20
2018-12-03T12:23:05.609Z,13.20
2018-12-03T12:24:05.559Z,14.10
2018-12-03T12:25:05.530Z,11.50
2018-12-03T12:26:05.455Z,12.20
2018-12-03T12:27:05.404Z,14.20
2018-12-03T12:28:05.352Z,13.30
2018-12-03T12:29:05.303Z,12.50
2018-12-03T12:30:05.275Z,13.30
2018-12-03T12:31:05.201Z,14.60
2018-12-03T12:32:05.147Z,12.50
2018-12-03T12:33:05.094Z,13.70
2018-12-03T12:34:05.043Z,14.30
2018-12-03T12:35:05.017Z,11.40
2018-12-03T12:36:04.943Z,14.00
2018-12-03T12:37:04.891Z,9.90
2018-12-03T12:38:04.839Z,11.50
2018-12-03T12:39:04.789Z,14.50
2018-12-03T12:40:04.762Z,11.60
2018-12-03T12:41:04.689Z,11.30
2018-12-03T12:42:04.633Z,9.10
2018-12-03T12:43:04.585Z,11.80
2018-12-03T12:44:04.532Z,11.10
2018-12-03T12:45:04.506Z,9.30
2018-12-03T12:46:04.433Z,12.70
2018-12-03T12:47:04.389Z,13.60
2018-12-03T12:48:04.334Z,12.90
2018-12-03T12:49:04.283Z,9.90
2018-12-03T12:50:04.254Z,11.30
2018-12-03T12:51:04.177Z,11.30
2018-12-03T12:52:04.127Z,12.40
2018-12-03T12:53:04.076Z,12.20